Time;durP1;ratioP1;P1;durP2;ratioP2;P2;SDS_P1;SDS_P2;PMS_P1;PMS_P2;Temp;Humidity;BMP_temperature;BMP_pressure;BME280_temperature;BME280_humidity;BME280_pressure;Samples;Min_cycle;Max_cycle;Signal;HPM_P1;HPM_P2
2021/03/10 00:00:11;;;;;;;36.90;20.40;;;4.90;75.40;;;5.30;61.29;97740.47;4983759;28;20047;-38
2021/03/10 00:02:39;;;;;;;37.23;19.27;;;4.90;75.50;;;5.36;59.26;97744.41;4983345;28;20046;-42
2021/03/10 00:05:09;;;;;;;33.67;18.07;;;4.90;74.30;;;5.38;60.32;97734.56;4983493;28;20043;-38
2021/03/10 00:07:38;;;;;;;34.67;20.27;;;5.00;74.70;;;5.42;59.03;97728.06;4982279;28;20055;-41
2021/03/10 00:10:08;;;;;;;36.10;19.37;;;4.90;73.90;;;5.43;59.69;97728.91;4983447;28;20047;-42
2021/03/10 00:12:37;;;;;;;33.10;17.70;;;4.90;74.00;;;5.44;59.61;97734.06;4983431;28;20445;-40
2021/03/10 00:15:10;;;;;;;37.30;19.37;;;5.00;73.80;;;5.45;59.80;97741.03;4983712;28;20370;-39
2021/03/10 00:17:42;;;;;;;36.47;18.93;;;5.00;73.90;;;5.47;59.67;97725.91;4983465;28;20252;-39
2021/03/10 00:20:13;;;;;;;36.27;19.23;;;5.00;73.70;;;5.51;59.14;97731.75;4984181;28;20062;-42
2021/03/10 00:22:42;;;;;;;36.37;18.10;;;5.10;73.60;;;5.53;59.53;97732.47;4982927;28;20051;-39
2021/03/10 00:25:11;;;;;;;34.27;18.50;;;5.10;73.50;;;5.55;59.72;97735.81;4982348;28;20047;-39
2021/03/10 00:27:40;;;;;;;31.97;18.83;;;5.10;73.40;;;5.55;59.63;97738.47;4983292;28;20051;-36
2021/03/10 00:30:11;;;;;;;39.13;20.90;;;5.20;73.40;;;5.56;59.44;97747.22;4983748;28;20076;-40
2021/03/10 00:32:39;;;;;;;32.03;19.77;;;5.20;73.80;;;5.56;59.80;97745.41;4982259;28;20061;-39
2021/03/10 00:35:27;;;;;;;33.57;18.23;;;5.20;73.50;;;5.55;59.88;97745.56;4982528;28;20233;-40
2021/03/10 00:38:00;;;;;;;33.33;18.80;;;5.10;73.90;;;5.55;59.26;97754.31;4982996;28;20054;-42
2021/03/10 00:40:28;;;;;;;30.67;17.30;;;5.10;73.80;;;5.54;59.59;97757.91;4983177;28;20050;-39
2021/03/10 00:42:57;;;;;;;36.77;19.20;;;5.10;74.00;;;5.55;60.15;97759.59;4982750;28;20042;-38
2021/03/10 00:45:25;;;;;;;35.30;19.43;;;5.10;74.30;;;5.57;59.27;97767.41;4982955;28;20080;-38
2021/03/10 00:47:57;;;;;;;37.53;19.40;;;5.10;73.80;;;5.59;59.34;97768.09;4983283;28;20389;-40
2021/03/10 00:50:28;;;;;;;33.07;19.50;;;5.20;74.10;;;5.61;59.69;97776.75;4982019;28;20050;-39
2021/03/10 00:52:57;;;;;;;35.07;18.53;;;5.20;73.50;;;5.62;59.36;97773.97;4983336;28;20061;-40
2021/03/10 00:55:25;;;;;;;35.63;21.43;;;5.20;73.50;;;5.61;59.39;97782.03;4983117;28;20061;-42
2021/03/10 00:57:53;;;;;;;38.37;20.73;;;5.20;73.60;;;5.61;60.02;97774.09;4983190;28;20440;-41
2021/03/10 01:00:21;;;;;;;34.93;18.73;;;5.20;73.70;;;5.59;59.50;97763.66;4993409;28;20038;-41
2021/03/10 01:02:49;;;;;;;38.77;20.10;;;5.20;73.80;;;5.62;59.85;97770.47;5001551;28;20050;-42
2021/03/10 01:05:18;;;;;;;31.23;18.20;;;5.20;74.90;;;5.61;59.84;97764.38;5002410;28;20358;-36
2021/03/10 01:07:46;;;;;;;36.13;20.63;;;5.10;76.30;;;5.59;59.78;97774.22;4994757;28;20236;-41
2021/03/10 01:10:15;;;;;;;32.77;18.27;;;5.10;74.30;;;5.57;59.87;97759.47;4980830;28;20042;-42
2021/03/10 01:12:43;;;;;;;35.07;18.47;;;5.00;74.60;;;5.56;59.74;97758.59;4982370;28;20066;-40
2021/03/10 01:15:18;;;;;;;37.90;20.10;;;5.10;74.60;;;5.53;60.19;97761.53;4981900;28;20057;-40
2021/03/10 01:17:47;;;;;;;34.07;17.73;;;5.00;75.40;;;5.49;60.40;97760.94;4982954;28;20057;-39
2021/03/10 01:20:20;;;;;;;35.97;19.07;;;5.00;76.50;;;5.48;60.10;97763.69;4981260;28;20065;-41
2021/03/10 01:22:48;;;;;;;35.93;19.97;;;4.90;75.50;;;5.49;60.05;97753.00;4981699;28;20053;-40
2021/03/10 01:25:17;;;;;;;35.43;19.67;;;5.00;75.00;;;5.51;60.56;97752.91;4981735;28;20085;-41
2021/03/10 01:27:44;;;;;;;37.00;18.47;;;5.10;74.80;;;5.52;60.53;97760.69;4982865;28;20363;-41
2021/03/10 01:30:14;;;;;;;33.97;20.07;;;5.10;76.30;;;5.50;60.34;97759.13;4982799;28;20059;-40
2021/03/10 01:32:45;;;;;;;37.53;20.80;;;5.10;75.00;;;5.51;60.64;97751.09;4982219;28;20188;-40
2021/03/10 01:35:14;;;;;;;43.27;19.90;;;5.10;74.80;;;5.55;60.56;97751.66;4983027;28;20054;-42
2021/03/10 01:37:43;;;;;;;35.53;19.00;;;5.20;74.40;;;5.57;60.15;97751.56;4981661;28;20065;-40
2021/03/10 01:40:14;;;;;;;34.47;18.10;;;5.20;74.50;;;5.57;62.03;97751.56;4982739;28;20356;-42
2021/03/10 01:42:43;;;;;;;37.20;19.93;;;5.20;75.80;;;5.54;60.82;97755.25;4982228;28;20222;-38
2021/03/10 01:45:13;;;;;;;32.57;17.70;;;5.10;76.00;;;5.53;60.70;97754.44;4981227;28;20245;-39
2021/03/10 01:47:46;;;;;;;31.57;18.10;;;5.00;75.20;;;5.45;61.46;97750.75;4982757;28;20248;-39
2021/03/10 01:50:19;;;;;;;35.93;19.13;;;5.00;76.60;;;5.44;62.00;97757.81;4981734;28;20337;-38
2021/03/10 01:52:47;;;;;;;38.63;20.57;;;4.90;77.00;;;5.40;60.97;97760.84;4982338;28;20055;-41
2021/03/10 01:55:15;;;;;;;27.73;17.17;;;4.90;77.50;;;5.41;61.26;97750.16;4982475;28;20054;-40
2021/03/10 01:57:45;;;;;;;38.60;18.40;;;4.90;77.00;;;5.40;61.42;97755.56;4984802;28;20058;-43
2021/03/10 02:00:14;;;;;;;37.57;18.50;;;4.90;76.70;;;5.33;61.94;97752.56;4968719;28;20061;-41
2021/03/10 02:02:43;;;;;;;38.43;19.03;;;4.80;77.80;;;5.27;62.31;97738.09;4987628;28;20374;-37
2021/03/10 02:05:16;;;;;;;37.67;20.03;;;4.80;77.40;;;5.24;62.16;97738.34;4998559;28;20121;-40
2021/03/10 02:08:13;;;;;;;41.50;19.10;;;4.80;77.60;;;5.12;64.03;97740.19;5003722;28;20046;-40
2021/03/10 02:11:19;;;;;;;30.03;16.50;;;4.80;78.50;;;5.18;63.07;97738.03;4986034;28;20044;-40
2021/03/10 02:14:39;;;;;;;35.77;18.80;;;4.80;77.80;;;5.11;63.79;97735.84;4992386;28;20066;-42
2021/03/10 02:17:13;;;;;;;33.87;16.90;;;4.80;79.60;;;5.10;63.58;97736.84;5000287;28;20057;-41
2021/03/10 02:20:05;;;;;;;39.53;21.17;;;4.80;79.30;;;5.15;63.23;97738.25;5003872;28;20050;-40
2021/03/10 02:23:00;;;;;;;35.57;18.20;;;4.70;79.80;;;5.10;63.47;97742.13;4984023;28;20065;-42
2021/03/10 02:26:24;;;;;;;38.77;19.27;;;4.70;79.60;;;5.11;63.61;97732.38;4985436;28;20047;-36
2021/03/10 02:28:53;;;;;;;37.13;19.17;;;4.70;79.60;;;5.14;63.45;97732.16;4985377;28;20050;-40
2021/03/10 02:31:22;;;;;;;39.70;20.83;;;4.70;79.00;;;5.15;63.73;97733.81;4984381;28;20240;-40
2021/03/10 02:33:52;;;;;;;36.73;18.53;;;4.80;79.60;;;5.16;63.21;97737.28;4983827;28;20057;-38
2021/03/10 02:36:20;;;;;;;34.67;19.77;;;4.80;79.10;;;5.12;63.78;97742.81;4984202;28;20061;-40
2021/03/10 02:38:51;;;;;;;36.03;20.00;;;4.80;78.90;;;5.12;64.00;97742.81;4984283;28;20061;-41
2021/03/10 02:41:21;;;;;;;33.50;17.40;;;4.70;79.10;;;5.17;62.83;97734.53;4985429;28;20375;-40
2021/03/10 02:43:52;;;;;;;33.57;18.43;;;4.80;78.60;;;5.17;63.29;97742.44;4983544;28;20053;-40
2021/03/10 02:46:20;;;;;;;34.60;17.87;;;4.80;78.80;;;5.04;64.49;97741.75;4983756;28;20053;-40
2021/03/10 02:48:50;;;;;;;34.83;19.70;;;4.70;79.00;;;5.09;63.89;97744.88;4968222;28;20046;-40
2021/03/10 02:51:20;;;;;;;35.60;18.67;;;4.70;78.80;;;4.93;64.67;97740.81;4985121;28;20084;-38
2021/03/10 02:53:50;;;;;;;36.27;18.43;;;4.60;79.30;;;5.04;63.94;97749.66;4952103;28;20065;-39
2021/03/10 02:56:18;;;;;;;38.23;18.27;;;4.70;78.80;;;5.04;64.29;97753.16;4985094;28;20051;-39
2021/03/10 02:58:46;;;;;;;33.20;19.43;;;4.70;78.80;;;4.97;64.68;97751.97;4983835;28;20050;-42
2021/03/10 03:01:15;;;;;;;35.53;18.47;;;4.70;79.20;;;4.99;63.88;97755.34;4983847;28;20061;-41
2021/03/10 03:03:43;;;;;;;35.80;19.17;;;4.70;79.00;;;5.04;63.95;97752.31;4984344;28;20057;-42
2021/03/10 03:06:11;;;;;;;38.70;20.13;;;4.70;78.90;;;5.01;63.88;97756.03;4984635;28;20052;-38
2021/03/10 03:08:39;;;;;;;32.90;18.27;;;4.70;79.10;;;4.97;64.79;97767.81;4984643;28;20057;-42
2021/03/10 03:11:08;;;;;;;38.07;19.67;;;4.70;79.60;;;4.97;64.46;97769.63;4977819;28;20224;-40
2021/03/10 03:13:36;;;;;;;35.23;19.23;;;4.70;78.60;;;4.98;64.15;97772.13;4984040;28;20050;-39
2021/03/10 03:16:04;;;;;;;32.90;19.80;;;4.70;78.70;;;5.02;63.70;97786.75;4984503;28;20050;-37
2021/03/10 03:18:33;;;;;;;35.13;19.73;;;4.70;78.90;;;4.99;64.79;97778.25;4983570;28;20057;-37
2021/03/10 03:21:02;;;;;;;32.30;16.53;;;4.70;79.20;;;4.98;64.27;97779.19;4984305;28;20051;-38
2021/03/10 03:23:31;;;;;;;29.70;18.50;;;4.60;79.60;;;4.81;64.68;97777.91;4984268;28;20046;-41
2021/03/10 03:26:00;;;;;;;36.33;20.10;;;4.50;79.50;;;4.87;64.34;97788.81;4983283;28;20046;-35
2021/03/10 03:28:29;;;;;;;30.13;17.50;;;4.50;79.70;;;4.73;64.69;97781.16;4984832;28;20049;-41
2021/03/10 03:30:57;;;;;;;32.33;18.13;;;4.50;79.90;;;4.80;65.17;97786.78;4982724;28;20057;-39
2021/03/10 03:33:28;;;;;;;37.33;17.57;;;4.50;80.30;;;4.86;64.14;97788.94;4982982;28;20057;-39
2021/03/10 03:35:58;;;;;;;33.70;17.63;;;4.50;79.60;;;4.87;64.09;97780.06;4984495;28;20054;-38
2021/03/10 03:38:29;;;;;;;32.97;19.20;;;4.50;79.60;;;4.89;64.26;97786.88;4984248;28;20337;-41
2021/03/10 03:40:57;;;;;;;34.07;18.03;;;4.50;79.10;;;4.87;64.42;97791.44;4984174;28;20053;-40
2021/03/10 03:43:27;;;;;;;32.83;17.13;;;4.50;79.60;;;4.82;64.94;97793.59;4982603;28;20072;-37
2021/03/10 03:45:56;;;;;;;38.17;19.63;;;4.50;79.80;;;4.87;64.57;97795.91;4982771;28;20050;-42
2021/03/10 03:48:24;;;;;;;38.87;19.10;;;4.50;79.80;;;4.91;63.96;97799.97;4983020;28;20046;-41
2021/03/10 03:50:52;;;;;;;33.20;18.23;;;4.50;79.10;;;4.88;64.45;97797.56;4983948;28;20051;-38
2021/03/10 03:53:20;;;;;;;38.13;18.43;;;4.50;79.70;;;4.92;63.83;97799.00;4983822;28;20053;-41
2021/03/10 03:55:48;;;;;;;33.97;19.10;;;4.50;79.30;;;4.90;64.43;97803.56;4983900;28;20046;-42
2021/03/10 03:58:16;;;;;;;34.90;18.63;;;4.50;79.70;;;4.91;64.19;97802.59;4983746;28;20248;-39
2021/03/10 04:00:44;;;;;;;34.37;18.33;;;4.50;79.70;;;4.91;64.00;97792.88;4983826;28;20065;-41
2021/03/10 04:03:12;;;;;;;38.37;19.70;;;4.50;79.20;;;4.97;63.78;97786.28;4983439;28;20051;-40
2021/03/10 04:05:40;;;;;;;41.90;20.57;;;4.60;78.90;;;5.00;63.69;97790.47;4983734;28;20367;-38
2021/03/10 04:08:10;;;;;;;33.37;18.57;;;4.60;78.50;;;5.00;64.10;97795.75;4983706;28;20042;-39
2021/03/10 04:10:40;;;;;;;36.87;19.43;;;4.60;78.40;;;5.00;63.48;97791.31;4982960;28;20065;-40
2021/03/10 04:13:08;;;;;;;38.90;19.13;;;4.60;78.50;;;5.03;63.73;97788.41;4980846;28;20057;-40
2021/03/10 04:15:36;;;;;;;39.67;20.60;;;4.60;78.50;;;5.06;63.52;97784.69;4982237;28;20348;-42
2021/03/10 04:18:05;;;;;;;33.63;19.33;;;4.60;78.40;;;5.00;63.50;97791.31;4983693;28;20054;-42
2021/03/10 04:20:33;;;;;;;38.57;20.47;;;4.50;78.90;;;4.99;63.47;97792.28;4980864;28;20259;-40
2021/03/10 04:23:02;;;;;;;43.60;23.10;;;4.50;79.00;;;4.96;63.66;97789.03;4980705;28;20062;-40
2021/03/10 04:25:30;;;;;;;35.83;21.30;;;4.50;78.90;;;4.97;63.44;97803.91;4982180;28;20046;-38
2021/03/10 04:27:58;;;;;;;38.37;20.00;;;4.50;79.30;;;5.01;63.18;97794.78;4982392;28;20046;-40
2021/03/10 04:30:26;;;;;;;40.47;21.73;;;4.60;78.40;;;5.05;63.16;97804.97;4981987;28;20051;-41
2021/03/10 04:32:54;;;;;;;39.53;20.03;;;4.60;78.30;;;5.09;63.22;97805.56;4982037;28;20050;-37
2021/03/10 04:35:23;;;;;;;38.33;20.57;;;4.70;78.10;;;5.13;63.28;97801.72;4983323;28;20069;-40
2021/03/10 04:37:51;;;;;;;38.97;20.50;;;4.70;77.70;;;5.17;63.63;97800.50;4983173;28;20055;-41
2021/03/10 04:40:20;;;;;;;50.17;26.73;;;4.70;77.60;;;5.20;62.56;97794.16;4983241;28;20046;-42
2021/03/10 04:42:48;;;;;;;41.47;20.73;;;4.80;77.40;;;5.21;62.97;97801.09;4981789;28;20061;-41
2021/03/10 04:45:17;;;;;;;47.43;28.40;;;4.80;77.30;;;5.23;62.99;97802.66;4983174;28;20046;-40
2021/03/10 04:47:46;;;;;;;41.00;23.03;;;4.80;77.30;;;5.24;62.26;97804.34;4983258;28;20053;-41
2021/03/10 04:50:16;;;;;;;45.37;23.83;;;4.80;77.00;;;5.27;63.37;97808.53;4983118;28;20051;-40
2021/03/10 04:52:44;;;;;;;38.37;22.73;;;4.90;77.20;;;5.26;62.69;97812.97;4982672;28;20065;-39
2021/03/10 04:55:12;;;;;;;38.67;21.30;;;4.90;76.80;;;5.28;62.42;97818.13;4983339;28;20054;-40
2021/03/10 04:57:40;;;;;;;43.03;23.67;;;4.90;76.90;;;5.29;62.34;97825.94;4983230;28;20069;-40
2021/03/10 05:00:10;;;;;;;39.97;21.97;;;4.90;76.90;;;5.31;62.80;97824.00;4983043;28;20051;-39
2021/03/10 05:02:39;;;;;;;33.43;19.63;;;4.90;76.70;;;5.33;62.32;97821.22;4981514;28;20057;-40
2021/03/10 05:05:09;;;;;;;40.57;21.13;;;5.00;76.60;;;5.33;62.86;97818.56;4982678;28;20051;-41
2021/03/10 05:07:37;;;;;;;37.47;21.73;;;4.90;76.80;;;5.34;62.61;97820.28;4983055;28;20364;-40
2021/03/10 05:10:08;;;;;;;35.90;19.47;;;4.90;76.80;;;5.34;62.61;97812.34;4982915;28;20208;-42
2021/03/10 05:12:36;;;;;;;33.90;20.00;;;5.00;76.50;;;5.29;62.46;97822.44;4978049;28;20046;-40
2021/03/10 05:15:06;;;;;;;37.23;20.90;;;4.90;77.20;;;5.26;63.04;97818.25;4987796;28;20051;-40
2021/03/10 05:17:35;;;;;;;41.77;20.93;;;4.80;77.60;;;5.23;63.49;97815.00;4982754;28;20256;-40
2021/03/10 05:20:08;;;;;;;38.37;19.00;;;4.80;77.70;;;5.23;63.00;97812.38;4982886;28;20236;-41
2021/03/10 05:22:37;;;;;;;38.70;21.15;;;4.80;77.80;;;5.18;62.98;97819.84;4981406;28;20510;-36
2021/03/10 05:25:08;;;;;;;38.47;22.47;;;4.70;78.10;;;5.19;63.45;97829.44;4982816;28;20038;-40
2021/03/10 05:27:36;;;;;;;37.43;20.53;;;4.70;77.90;;;5.21;62.87;97823.06;4983053;28;20042;-41
2021/03/10 05:32:44;;;;;;;42.40;21.80;;;4.90;77.60;;;5.22;62.69;97827.38;5003625;28;20042;-34
2021/03/10 05:35:13;;;;;;;40.47;22.93;;;4.80;77.60;;;5.25;63.09;97832.44;4986974;28;20051;-34
2021/03/10 05:37:41;;;;;;;35.33;19.20;;;4.80;77.30;;;5.27;63.04;97827.88;4986504;28;20044;-34
2021/03/10 05:40:10;;;;;;;34.57;19.77;;;4.90;77.20;;;5.32;63.28;97822.19;5001424;28;20323;-34
2021/03/10 05:42:42;;;;;;;37.97;20.97;;;4.90;77.00;;;5.33;62.45;97821.22;4985899;28;20053;-34
2021/03/10 05:45:11;;;;;;;35.17;19.17;;;4.90;76.90;;;5.36;62.72;97830.72;4986186;28;20042;-34
2021/03/10 05:47:40;;;;;;;38.60;20.97;;;4.90;76.90;;;5.35;62.61;97821.97;4986309;28;20049;-34
2021/03/10 05:50:15;;;;;;;40.60;21.63;;;4.90;77.00;;;5.36;62.77;97831.53;4999865;28;20390;-34
2021/03/10 05:52:44;;;;;;;37.23;20.90;;;4.90;77.00;;;5.36;62.33;97828.06;4985791;28;20340;-34
2021/03/10 05:55:12;;;;;;;36.90;20.47;;;4.90;77.00;;;5.36;62.99;97825.44;4986002;28;20540;-32
2021/03/10 05:57:42;;;;;;;39.13;21.57;;;4.90;76.90;;;5.37;62.86;97840.28;4986180;28;20053;-34
2021/03/10 06:00:15;;;;;;;37.83;20.10;;;5.00;77.00;;;5.39;62.92;97838.38;4986048;28;20054;-34
2021/03/10 06:02:44;;;;;;;36.40;19.95;;;5.00;76.70;;;5.40;62.51;97842.72;4983241;28;20082;-34
2021/03/10 06:05:23;;;;;;;36.40;21.27;;;5.00;76.80;;;5.40;62.89;97842.72;4985856;28;20049;-34
2021/03/10 06:08:02;;;;;;;35.90;19.73;;;5.00;76.80;;;5.41;62.45;97839.09;5000509;28;20061;-34
2021/03/10 06:10:44;;;;;;;37.03;18.60;;;5.00;77.10;;;5.41;62.77;97837.31;4985874;28;20047;-34
2021/03/10 06:13:28;;;;;;;32.47;19.90;;;5.10;76.90;;;5.42;62.70;97843.41;4992412;28;20051;-34
2021/03/10 06:15:59;;;;;;;33.93;19.27;;;5.00;76.90;;;5.42;62.84;97846.88;5002058;28;20046;-32
2021/03/10 06:18:35;;;;;;;37.50;19.53;;;5.00;76.70;;;5.45;62.65;97851.09;5018828;28;20080;-35
2021/03/10 06:21:07;;;;;;;34.00;18.97;;;5.00;76.70;;;5.42;62.41;97862.72;5005150;28;20046;-35
2021/03/10 06:23:58;;;;;;;33.47;18.93;;;5.10;76.70;;;5.44;63.25;97866.09;5004462;28;20050;-32
2021/03/10 06:26:33;;;;;;;34.90;20.37;;;5.10;76.70;;;5.47;62.51;97871.13;5017133;28;20050;-34
2021/03/10 06:29:12;;;;;;;37.17;18.80;;;5.20;76.60;;;5.47;62.64;97868.50;5020349;28;20048;-34
2021/03/10 06:31:42;;;;;;;33.03;18.83;;;5.10;76.50;;;5.43;63.10;97876.75;5004825;28;20042;-34
2021/03/10 06:34:13;;;;;;;33.27;19.03;;;5.10;76.80;;;5.48;62.88;97872.78;5004301;28;20366;-34
2021/03/10 06:36:48;;;;;;;34.60;18.53;;;5.20;76.60;;;5.52;62.66;97874.25;5004799;28;20050;-33
2021/03/10 06:39:27;;;;;;;36.07;19.67;;;5.30;76.50;;;5.58;63.10;97867.59;5004472;28;20050;-33
2021/03/10 06:41:56;;;;;;;36.67;19.70;;;5.30;76.30;;;5.63;62.75;97870.72;5004369;28;20046;-34
2021/03/10 06:44:31;;;;;;;35.97;19.30;;;5.40;75.80;;;5.68;62.67;97871.19;5003527;28;20064;-34
2021/03/10 06:47:06;;;;;;;35.87;19.20;;;5.40;75.70;;;5.73;62.69;97870.81;5003038;28;20057;-34
2021/03/10 06:49:48;;;;;;;39.50;21.50;;;5.50;75.90;;;5.71;62.44;97870.09;5004461;28;20053;-34
2021/03/10 06:52:16;;;;;;;42.67;21.90;;;5.50;75.70;;;5.74;62.70;97877.78;5004177;28;20061;-34
2021/03/10 06:54:59;;;;;;;39.67;21.83;;;5.50;75.70;;;5.78;62.13;97876.56;5003196;28;20042;-34
2021/03/10 06:57:27;;;;;;;40.57;22.33;;;5.60;75.70;;;5.78;62.70;97881.84;5004030;28;20065;-34
2021/03/10 06:59:57;;;;;;;38.43;21.10;;;5.50;75.60;;;5.80;62.77;97879.94;5004372;28;20046;-34
2021/03/10 07:02:30;;;;;;;35.97;21.53;;;5.50;75.70;;;5.78;62.86;97888.91;5001603;28;20057;-34
2021/03/10 07:05:00;;;;;;;34.72;20.13;;;5.50;75.80;;;5.83;62.48;97884.09;5003745;28;20046;-34
2021/03/10 07:07:29;;;;;;;37.47;21.60;;;5.50;75.70;;;5.88;62.78;97892.50;5003958;28;20054;-34
2021/03/10 07:10:10;;;;;;;39.17;21.70;;;5.60;75.50;;;5.90;62.11;97893.22;5004171;28;20038;-34
2021/03/10 07:12:38;;;;;;;35.60;22.30;;;5.60;75.30;;;5.93;62.10;97900.88;5003716;28;20050;-34
2021/03/10 07:15:06;;;;;;;37.47;21.00;;;5.60;75.20;;;5.95;62.04;97896.34;5001077;28;20052;-34
2021/03/10 07:17:35;;;;;;;40.07;23.17;;;5.70;75.30;;;5.98;62.17;97897.91;5003681;28;20065;-34
2021/03/10 07:20:04;;;;;;;40.50;22.63;;;5.70;75.20;;;5.94;62.26;97899.94;5018246;28;20058;-33
2021/03/10 07:22:36;;;;;;;39.20;22.00;;;5.70;75.30;;;5.94;62.34;97904.38;5001681;28;20363;-33
2021/03/10 07:25:15;;;;;;;41.40;22.33;;;5.70;75.40;;;5.93;62.55;97916.75;5003505;28;20260;-34
2021/03/10 07:27:51;;;;;;;35.47;19.60;;;5.70;75.40;;;6.01;62.56;97911.72;5018161;28;20062;-34
2021/03/10 07:30:19;;;;;;;38.67;22.73;;;5.70;75.30;;;6.01;62.91;97917.00;5004107;28;20088;-34
2021/03/10 07:32:46;;;;;;;38.83;20.90;;;5.70;75.30;;;6.07;61.96;97927.06;5003134;28;20360;-33
2021/03/10 07:35:15;;;;;;;31.47;19.40;;;5.80;75.10;;;6.14;62.62;97931.84;5018214;28;20054;-34
2021/03/10 07:37:54;;;;;;;38.67;21.23;;;5.90;75.00;;;6.16;62.53;97925.44;5003744;28;20248;-34
2021/03/10 07:40:59;;;;;;;40.37;20.87;;;6.00;74.90;;;6.10;62.29;97932.09;5003516;28;20366;-34
2021/03/10 07:43:52;;;;;;;37.87;22.00;;;5.90;74.80;;;6.16;62.61;97928.09;5002946;28;20072;-34
2021/03/10 07:46:34;;;;;;;41.10;23.30;;;6.00;75.10;;;6.23;62.61;97937.22;5002737;28;20046;-34
2021/03/10 07:49:16;;;;;;;37.47;20.73;;;6.10;74.80;;;5.98;62.72;97935.75;5003332;28;20056;-34
2021/03/10 07:51:44;;;;;;;36.10;20.33;;;5.90;75.00;;;6.00;63.15;97941.75;5002924;28;20054;-33
2021/03/10 07:54:27;;;;;;;37.10;21.10;;;5.80;75.50;;;6.06;62.85;97941.22;5002440;28;20057;-33
2021/03/10 07:57:12;;;;;;;35.63;19.73;;;5.80;75.80;;;6.15;63.22;97944.94;5002686;28;20367;-33
2021/03/10 07:59:53;;;;;;;35.67;19.53;;;6.00;75.70;;;5.96;63.47;97953.53;5003219;28;20061;-33
2021/03/10 08:02:22;;;;;;;38.10;20.40;;;5.80;75.80;;;6.00;63.76;97949.66;5002007;28;20243;-33
2021/03/10 08:05:01;;;;;;;39.07;21.77;;;5.80;75.80;;;5.93;63.23;97945.81;5003009;28;20046;-33
2021/03/10 08:07:33;;;;;;;42.13;24.43;;;5.80;75.80;;;6.03;63.11;97952.06;5003274;28;20048;-33
2021/03/10 08:10:01;;;;;;;40.27;22.30;;;5.90;75.70;;;6.05;63.42;97947.50;5021869;28;20042;-34
2021/03/10 08:12:42;;;;;;;37.93;21.40;;;5.90;75.40;;;6.01;63.64;97945.22;5022260;28;20056;-34
2021/03/10 08:15:24;;;;;;;35.43;20.87;;;5.90;75.70;;;5.85;64.44;97954.34;5008538;28;20072;-34
2021/03/10 08:18:04;;;;;;;36.57;20.07;;;5.80;76.20;;;5.91;63.74;97950.38;4993654;28;20054;-34
2021/03/10 08:20:37;;;;;;;38.43;20.40;;;5.80;76.30;;;6.03;63.63;97954.72;4996638;28;20068;-34
2021/03/10 08:23:06;;;;;;;31.93;18.77;;;5.90;76.00;;;5.91;64.02;97955.66;5001030;28;20058;-34
2021/03/10 08:25:35;;;;;;;37.70;20.50;;;5.90;76.00;;;5.99;63.94;97952.44;5002378;28;20046;-32
2021/03/10 08:28:14;;;;;;;35.30;21.50;;;5.90;76.30;;;5.97;64.06;97962.28;5035403;28;20046;-34
2021/03/10 08:30:43;;;;;;;36.27;19.50;;;5.90;76.00;;;5.98;63.37;97956.88;5019014;28;20041;-34
2021/03/10 08:33:12;;;;;;;33.37;19.63;;;6.00;75.80;;;6.02;64.32;97954.84;5020978;28;20041;-34
2021/03/10 08:35:53;;;;;;;30.73;17.90;;;6.00;75.60;;;6.02;63.23;97963.59;5021150;28;20049;-34
2021/03/10 08:38:33;;;;;;;37.47;21.00;;;6.00;74.80;;;6.11;63.43;97949.63;5021872;28;20053;-32
2021/03/10 08:41:14;;;;;;;32.93;18.93;;;6.10;75.30;;;6.18;63.09;97944.66;5004755;28;20061;-33
2021/03/10 08:43:46;;;;;;;33.73;19.67;;;6.20;75.10;;;6.24;62.48;97949.47;5021293;28;20436;-33
2021/03/10 08:46:17;;;;;;;33.73;19.53;;;6.20;74.30;;;6.37;62.56;97953.75;5020275;28;20347;-33
2021/03/10 08:48:47;;;;;;;32.40;20.23;;;6.30;74.30;;;6.38;62.86;97963.34;5019169;28;20049;-33
2021/03/10 08:51:21;;;;;;;34.07;19.10;;;6.40;74.00;;;6.34;62.51;97960.13;5019818;28;20124;-33
2021/03/10 08:53:53;;;;;;;32.58;19.63;;;6.30;73.90;;;6.38;62.46;97955.41;5020605;28;20038;-32
2021/03/10 08:56:24;;;;;;;34.87;19.60;;;6.40;73.70;;;6.48;62.87;97959.81;5035160;28;20060;-33
2021/03/10 08:59:00;;;;;;;38.03;20.20;;;6.50;73.90;;;6.44;62.17;97960.22;5019783;28;20054;-33
2021/03/10 09:01:33;;;;;;;33.00;18.50;;;6.50;72.90;;;6.58;62.02;97954.59;5019348;28;20056;-34
2021/03/10 09:04:32;;;;;;;35.93;21.53;;;6.60;73.40;;;6.62;62.63;97952.53;5021143;28;20057;-33
2021/03/10 09:07:09;;;;;;;35.47;20.10;;;6.70;72.70;;;6.72;61.61;97952.59;5024796;28;20075;-33
2021/03/10 09:09:38;;;;;;;30.67;17.30;;;6.70;72.70;;;6.63;61.41;97960.34;5040286;28;20050;-33
2021/03/10 09:12:08;;;;;;;35.37;20.57;;;6.70;72.00;;;6.67;61.76;97953.84;5024476;28;20054;-33
2021/03/10 09:14:44;;;;;;;36.30;20.83;;;6.80;72.50;;;6.72;62.10;97952.59;5009548;28;20304;-33
2021/03/10 09:17:37;;;;;;;35.83;19.43;;;6.80;72.00;;;6.73;61.37;97955.13;4998876;28;20053;-33
2021/03/10 09:20:44;;;;;;;35.90;20.60;;;6.80;71.50;;;6.76;60.64;97962.78;5004746;28;20042;-33
2021/03/10 09:23:35;;;;;;;42.00;20.07;;;6.80;71.60;;;6.93;61.63;97949.94;4981583;28;20047;-33
2021/03/10 09:26:11;;;;;;;35.67;20.70;;;6.90;72.00;;;6.94;60.81;97939.25;5000995;28;20047;-33
2021/03/10 09:28:47;;;;;;;36.93;18.23;;;7.00;71.20;;;6.79;60.61;97940.53;5001192;28;20053;-33
2021/03/10 09:31:33;;;;;;;34.97;19.60;;;6.90;70.70;;;6.80;60.93;97934.25;4999265;28;20251;-32
2021/03/10 09:34:08;;;;;;;33.57;19.00;;;6.80;71.10;;;6.82;61.04;97946.38;4984423;28;20248;-32
2021/03/10 09:36:48;;;;;;;35.97;18.90;;;6.80;70.30;;;6.82;60.13;97956.13;5001015;28;20058;-32
2021/03/10 09:39:24;;;;;;;39.20;18.03;;;6.90;70.20;;;6.75;60.11;97955.84;4987252;28;20056;-32
2021/03/10 09:42:05;;;;;;;31.03;17.57;;;6.80;68.80;;;6.84;59.64;97947.13;5002318;28;20054;-32
2021/03/10 09:44:51;;;;;;;23.10;14.33;;;6.90;68.70;;;6.80;58.33;97937.75;4986382;28;20076;-32
2021/03/10 09:47:25;;;;;;;;;;;6.90;67.20;;;6.75;58.54;97947.91;5003304;28;20065;-32
2021/03/10 09:49:59;;;;;;;26.13;14.00;;;6.90;66.90;;;6.87;58.26;97932.78;5001145;28;19925;-33
2021/03/10 09:52:39;;;;;;;27.10;15.50;;;6.90;66.70;;;6.99;58.69;97930.88;5002214;28;20241;-33
2021/03/10 09:55:21;;;;;;;22.63;13.03;;;7.00;67.40;;;7.05;56.27;97939.13;5003178;28;20050;-33
2021/03/10 09:58:05;;;;;;;17.10;9.97;;;7.20;63.00;;;7.03;53.12;97935.78;4987295;28;20056;-32
2021/03/10 10:00:41;;;;;;;21.40;12.05;;;7.20;58.80;;;7.13;54.87;97924.41;4985008;28;20053;-32
2021/03/10 10:03:11;;;;;;;19.13;11.27;;;7.20;61.20;;;7.25;55.12;97924.19;4985976;28;20050;-32
2021/03/10 10:05:41;;;;;;;18.37;10.70;;;7.40;62.10;;;7.25;53.72;97926.84;4985843;28;20229;-32
2021/03/10 10:08:10;;;;;;;23.20;11.47;;;7.50;59.90;;;7.30;54.44;97940.50;4986220;28;20046;-32
2021/03/10 10:10:42;;;;;;;21.63;11.63;;;7.50;60.30;;;7.27;52.26;97939.94;5001900;28;20054;-32
2021/03/10 10:13:18;;;;;;;18.00;10.40;;;7.50;58.90;;;7.40;52.80;97929.94;5001330;28;20058;-32
2021/03/10 10:15:46;;;;;;;15.57;9.40;;;7.50;58.20;;;7.44;51.73;97938.47;5000429;28;20054;-32
2021/03/10 10:18:17;;;;;;;12.73;6.90;;;7.60;55.80;;;7.51;50.37;97936.13;5002058;28;20058;-32
2021/03/10 10:20:51;;;;;;;8.00;5.63;;;7.60;53.60;;;7.36;47.90;97944.44;5007326;28;20253;-32
2021/03/10 10:23:23;;;;;;;12.43;7.32;;;7.50;51.60;;;7.47;48.71;97927.59;5003891;28;20267;-34
2021/03/10 10:26:06;;;;;;;14.37;6.87;;;7.60;52.80;;;7.21;47.12;97928.06;5002760;28;20053;-31
2021/03/10 10:28:37;;;;;;;15.27;9.70;;;7.40;52.90;;;7.32;49.75;97939.53;5019528;28;20050;-32
2021/03/10 10:31:19;;;;;;;16.53;9.77;;;7.40;56.30;;;7.45;50.30;97929.56;5001790;28;20046;-32
2021/03/10 10:33:47;;;;;;;20.73;11.20;;;7.50;57.00;;;7.55;50.85;97927.75;5003475;28;20053;-32
2021/03/10 10:36:16;;;;;;;17.07;8.63;;;7.70;57.50;;;7.59;48.92;97930.97;5003035;28;20058;-32
2021/03/10 10:38:46;;;;;;;14.27;9.13;;;7.70;54.40;;;7.76;51.30;97932.16;5003242;28;20053;-32
2021/03/10 10:41:15;;;;;;;16.10;8.53;;;7.90;57.20;;;7.82;50.82;97921.81;5003870;28;20046;-33
2021/03/10 10:43:42;;;;;;;12.93;8.17;;;8.00;56.90;;;7.80;49.01;97930.91;5002461;28;20050;-33
2021/03/10 10:46:15;;;;;;;15.37;8.30;;;8.00;53.90;;;7.89;48.46;97930.91;5002056;28;20160;-33